Relevés horaires Schaffen (Belgique)


Relevés horaires à Schaffen - Jeudi 12 Mars 2026
Heure UTC1 Température [°C] Vent [km/h] Hum. [%] Pres.4 [hPa] Visi. [Km] Nébu. [octa] Préc.5 [mm] Cond.
2m. Res. Ros. Dir.2 Vit. Moy. Raf.3
23:00 9.6 8 3.6 S 11.1 -- 20.4 66 1012.2(-2.4/3h) >70 -- -- --
22:00 9.4 7.4 3.2 S 13.0 -- 25.9 65 1013.2(-2.2/3h) >70 -- -- --
21:00 9.7 7.8 3.0 S 13.0 -- 22.2 63 1013.8(-1.6/3h) >70 -- -- --
20:00 10.1 8.6 2.6 SSO 11.1 -- 18.5 60 1014.8(-1.0/3h) >70 -- -- --
19:00 10.7 9.6 3.4 SSO 9.3 -- 18.5 61 1015.3(-1.4/3h) >70 -- -- --
18:00 11.1 10.1 3.6 S 9.3 -- 24.1 60 1015.3(-2.4/3h) >70 -- -- --
17:00 12.0 10.6 3.1 SSO 13.0 -- 24.1 54 1016(-2.4/3h) >70 -- -- --
16:00 12.1 10.7 3.0 SSO 13.0 -- 24.1 54 1016.7(-2.0/3h) >70 -- -- --
15:00 12.6 11.3 3.1 SSO 13.0 -- 24.1 52 1017.7(-1.4/3h) >70 -- -- --
14:00 12.1 11.2 3.1 SO 9.3 -- 20.4 54 1018.5(-1.7/3h) >70 -- -- --
13:00 11.5 10.9 3.2 SO 7.4 -- 24.1 57 1018.8(-2.2/3h) >70 -- -- --
12:00 11.8 10.4 4.1 SSO 13.0 14.8 24.1 59 1019.2(-2.3/3h) 17 -- 0/0h
--
11:00 11.0 9.7 4.0 SSO 11.1 -- 24.1 62 1020.2(-1.6/3h) 16 -- -- --
10:00 9.6 8.3 5.0 SSO 9.3 -- 18.5 73 1021.2(-0.1/3h) 35 -- -- --
09:00 7.5 5.8 5.5 SSO 9.3 -- 16.7 87 1021.7(1.0/3h) 25 -- -- --
08:00 6.6 5.2 5.0 SSO 7.4 -- 14.8 89 1022(1.4/3h) 22 -- -- --
07:00 6.1 4.6 5.2 SSO 7.4 -- 14.8 94 1021.3(0.7/3h) 17 -- -- --
06:00 5.3 3.2 4.6 SSO 9.3 -- 13.0 95 1020.7(0.1/3h) 12 -- -- --
05:00 5.0 5.0 3.9 SSO 3.7 -- 7.4 93 1020.6(0.0/3h) 19 -- -- --
04:00 5.8 5.8 4.2 SO 3.7 -- 9.3 89 1020.6(0.3/3h) 27 -- -- --
03:00 6.0 5 4.4 SO 5.6 -- 9.3 89 1020.6(0.8/3h) 27 -- -- --
02:00 5.9 4.9 4.3 OSO 5.6 -- 9.3 89 1020.7(1.2/3h) 28 -- -- --
01:00 6.5 6.5 4.4 SO 3.7 -- 9.3 86 1020.2(1.1/3h) 30 -- -- --
00:00 6.8 6.8 4.4 SO 3.7 -- 9.3 85 1019.7(1.2/3h) 35 -- -- --

1 Coordinated Universal Time. Actuellement il est 08:00 locale et 06:00 UTC.

2 Le vent souffle depuis la direction indiquée vers la direction oposée.

3 Les rafales max. sont disponible 40 min après l'heure du relevé.

4 Pour les stations d'altitude (plus de 600m) le géopotentiel du niveau le plus proche de la pression obligatoire est indiqué.

5 Les stations disposant d'un diffuseur peuvent indiquer "trace". Cela signifie que des précipitations ont touchés le sol mais que la quantité est inférieure à 0.1 mm.

Récapitulatif de la journée
Température [°C] Vent [km/h] Ensoleillement4 [h] Precipitations totale5 [mm] Pression [Hpa]
Min1 Max.2 Moy.3 Max. Min Max.
4.8 13.0 14.8 25.9 0 h 0 min 0 1012.2 1022.0

1 Température minimale relevée entre 18:00 UTC la veille et 18:00 UTC le jour donné.

2 Température maximale relevée entre 06:00 UTC le jour donné et 06:00 UTC le lendemain.

3 Vent moyen de la journée basé sur les relevés horaires.

4 Ensoleillement en heures relevé entre 06:00 UTC la veille et 06:00 UTC le jour donné.

5 Précipitations totales tombées entre 06:00 UTC la jour donné et 06:00 UTC le lendemain.

Graphiques horaires